sensor_id;sensor_type;location;lat;lon;timestamp;pressure;altitude;pressure_sealevel;temperature;humidity
42847;BME280;28495;49.916;14.536;2022-07-30T00:00:47;96794.50;;;19.43;60.65
42847;BME280;28495;49.916;14.536;2022-07-30T00:06:08;96785.94;;;19.41;60.92
42847;BME280;28495;49.916;14.536;2022-07-30T00:11:29;96754.75;;;19.30;60.77
42847;BME280;28495;49.916;14.536;2022-07-30T00:16:49;96753.59;;;19.39;61.12
42847;BME280;28495;49.916;14.536;2022-07-30T00:22:10;96742.03;;;19.47;61.30
42847;BME280;28495;49.916;14.536;2022-07-30T00:27:30;96722.13;;;19.51;60.99
42847;BME280;28495;49.916;14.536;2022-07-30T00:32:54;96735.28;;;19.44;60.87
42847;BME280;28495;49.916;14.536;2022-07-30T00:38:15;96742.75;;;19.27;61.10
42847;BME280;28495;49.916;14.536;2022-07-30T00:43:36;96728.78;;;19.40;61.77
42847;BME280;28495;49.916;14.536;2022-07-30T00:48:57;96727.22;;;19.66;61.72
42847;BME280;28495;49.916;14.536;2022-07-30T00:54:17;96720.31;;;19.65;61.45
42847;BME280;28495;49.916;14.536;2022-07-30T00:59:39;96710.16;;;19.82;61.75
42847;BME280;28495;49.916;14.536;2022-07-30T01:04:59;96695.97;;;19.90;61.82
42847;BME280;28495;49.916;14.536;2022-07-30T01:10:20;96693.28;;;19.83;61.35
42847;BME280;28495;49.916;14.536;2022-07-30T01:15:40;96695.72;;;19.78;61.52
42847;BME280;28495;49.916;14.536;2022-07-30T01:21:08;96688.59;;;19.78;61.61
42847;BME280;28495;49.916;14.536;2022-07-30T01:26:33;96683.78;;;19.89;61.76
42847;BME280;28495;49.916;14.536;2022-07-30T01:31:55;96686.22;;;19.90;61.53
42847;BME280;28495;49.916;14.536;2022-07-30T01:37:20;96685.19;;;19.91;61.63
42847;BME280;28495;49.916;14.536;2022-07-30T01:42:42;96683.56;;;19.90;61.50
42847;BME280;28495;49.916;14.536;2022-07-30T01:48:07;96685.81;;;19.93;61.91
42847;BME280;28495;49.916;14.536;2022-07-30T01:53:31;96682.34;;;20.00;61.85
42847;BME280;28495;49.916;14.536;2022-07-30T01:58:54;96692.13;;;19.92;61.73
42847;BME280;28495;49.916;14.536;2022-07-30T02:04:18;96690.84;;;19.82;61.65
42847;BME280;28495;49.916;14.536;2022-07-30T02:09:49;96692.84;;;19.66;62.04
42847;BME280;28495;49.916;14.536;2022-07-30T02:15:33;96694.06;;;19.57;61.98
42847;BME280;28495;49.916;14.536;2022-07-30T02:21:05;96698.50;;;19.56;62.24
42847;BME280;28495;49.916;14.536;2022-07-30T02:26:31;96690.94;;;19.46;62.37
42847;BME280;28495;49.916;14.536;2022-07-30T02:31:55;96696.25;;;19.46;62.31
42847;BME280;28495;49.916;14.536;2022-07-30T02:37:18;96697.66;;;19.42;62.47
42847;BME280;28495;49.916;14.536;2022-07-30T02:43:03;96696.19;;;19.33;62.59
42847;BME280;28495;49.916;14.536;2022-07-30T02:48:26;96693.13;;;19.29;62.75
42847;BME280;28495;49.916;14.536;2022-07-30T02:53:56;96693.34;;;19.28;62.62
42847;BME280;28495;49.916;14.536;2022-07-30T02:59:21;96691.91;;;19.25;62.85
42847;BME280;28495;49.916;14.536;2022-07-30T03:04:43;96690.47;;;19.23;62.80
42847;BME280;28495;49.916;14.536;2022-07-30T03:10:10;96682.94;;;19.26;62.96
42847;BME280;28495;49.916;14.536;2022-07-30T03:15:32;96678.88;;;19.24;62.76
42847;BME280;28495;49.916;14.536;2022-07-30T03:20:59;96676.88;;;19.26;63.01
42847;BME280;28495;49.916;14.536;2022-07-30T03:26:21;96671.22;;;19.42;63.00
42847;BME280;28495;49.916;14.536;2022-07-30T03:31:44;96682.63;;;19.49;62.88
42847;BME280;28495;49.916;14.536;2022-07-30T03:37:06;96681.56;;;19.37;62.83
42847;BME280;28495;49.916;14.536;2022-07-30T03:42:27;96691.13;;;19.38;62.76
42847;BME280;28495;49.916;14.536;2022-07-30T03:47:49;96702.31;;;19.33;62.84
42847;BME280;28495;49.916;14.536;2022-07-30T03:53:11;96692.78;;;19.39;63.22
42847;BME280;28495;49.916;14.536;2022-07-30T03:58:52;96696.81;;;19.35;62.98
42847;BME280;28495;49.916;14.536;2022-07-30T04:04:13;96691.53;;;19.35;63.00
42847;BME280;28495;49.916;14.536;2022-07-30T04:09:35;96695.81;;;19.43;63.02
42847;BME280;28495;49.916;14.536;2022-07-30T04:15:13;96704.59;;;19.43;63.33
42847;BME280;28495;49.916;14.536;2022-07-30T04:20:54;96705.97;;;19.32;63.12
42847;BME280;28495;49.916;14.536;2022-07-30T04:26:16;96697.19;;;19.25;63.24
42847;BME280;28495;49.916;14.536;2022-07-30T04:31:38;96700.84;;;19.31;63.27
42847;BME280;28495;49.916;14.536;2022-07-30T04:37:27;96708.63;;;19.39;63.90
42847;BME280;28495;49.916;14.536;2022-07-30T04:42:48;96705.59;;;19.42;63.69
42847;BME280;28495;49.916;14.536;2022-07-30T04:48:09;96709.03;;;19.36;63.55
42847;BME280;28495;49.916;14.536;2022-07-30T04:53:54;96713.44;;;19.22;63.53
42847;BME280;28495;49.916;14.536;2022-07-30T04:59:19;96716.47;;;19.12;63.59
42847;BME280;28495;49.916;14.536;2022-07-30T05:04:41;96709.69;;;19.03;63.74
42847;BME280;28495;49.916;14.536;2022-07-30T05:10:03;96712.31;;;19.03;64.07
42847;BME280;28495;49.916;14.536;2022-07-30T05:15:24;96707.94;;;18.88;64.26
42847;BME280;28495;49.916;14.536;2022-07-30T05:20:58;96706.56;;;18.93;64.71
42847;BME280;28495;49.916;14.536;2022-07-30T05:26:34;96710.69;;;19.02;64.60
42847;BME280;28495;49.916;14.536;2022-07-30T05:31:55;96715.81;;;19.03;64.28
42847;BME280;28495;49.916;14.536;2022-07-30T05:37:22;96714.34;;;19.01;64.63
42847;BME280;28495;49.916;14.536;2022-07-30T05:42:43;96714.59;;;19.06;64.67
42847;BME280;28495;49.916;14.536;2022-07-30T05:48:05;96716.94;;;18.94;64.53
42847;BME280;28495;49.916;14.536;2022-07-30T05:53:26;96723.88;;;18.95;65.02
42847;BME280;28495;49.916;14.536;2022-07-30T05:58:56;96725.19;;;18.84;64.90
42847;BME280;28495;49.916;14.536;2022-07-30T06:04:37;96722.94;;;18.74;64.98
42847;BME280;28495;49.916;14.536;2022-07-30T06:10:06;96722.47;;;18.71;65.06
42847;BME280;28495;49.916;14.536;2022-07-30T06:15:27;96731.66;;;18.75;65.32
42847;BME280;28495;49.916;14.536;2022-07-30T06:20:48;96730.59;;;18.69;65.17
42847;BME280;28495;49.916;14.536;2022-07-30T06:26:30;96737.09;;;18.67;65.11
42847;BME280;28495;49.916;14.536;2022-07-30T06:31:51;96736.25;;;18.66;65.54
42847;BME280;28495;49.916;14.536;2022-07-30T06:37:14;96734.63;;;18.65;65.46
42847;BME280;28495;49.916;14.536;2022-07-30T06:42:36;96725.34;;;18.76;65.81
42847;BME280;28495;49.916;14.536;2022-07-30T06:48:22;96729.59;;;18.70;65.34
42847;BME280;28495;49.916;14.536;2022-07-30T06:53:44;96733.88;;;18.71;65.56
42847;BME280;28495;49.916;14.536;2022-07-30T06:59:05;96732.06;;;18.79;65.67
42847;BME280;28495;49.916;14.536;2022-07-30T07:04:44;96734.59;;;18.87;65.86
42847;BME280;28495;49.916;14.536;2022-07-30T07:10:07;96740.06;;;18.92;65.63
42847;BME280;28495;49.916;14.536;2022-07-30T07:15:48;96745.19;;;18.94;65.83
42847;BME280;28495;49.916;14.536;2022-07-30T07:21:14;96746.25;;;18.99;65.68
42847;BME280;28495;49.916;14.536;2022-07-30T07:26:36;96755.94;;;18.92;65.45
42847;BME280;28495;49.916;14.536;2022-07-30T07:32:00;96746.97;;;18.86;65.80
42847;BME280;28495;49.916;14.536;2022-07-30T07:37:25;96744.91;;;18.82;65.50
42847;BME280;28495;49.916;14.536;2022-07-30T07:42:47;96746.88;;;18.73;65.75
42847;BME280;28495;49.916;14.536;2022-07-30T07:48:11;96758.03;;;18.68;65.81
42847;BME280;28495;49.916;14.536;2022-07-30T07:53:41;96757.66;;;18.71;65.91
42847;BME280;28495;49.916;14.536;2022-07-30T07:59:01;96757.59;;;18.65;65.95
42847;BME280;28495;49.916;14.536;2022-07-30T08:04:23;96756.13;;;18.62;66.12
42847;BME280;28495;49.916;14.536;2022-07-30T08:10:03;96754.75;;;18.66;66.32
42847;BME280;28495;49.916;14.536;2022-07-30T08:15:53;96758.22;;;18.67;66.39
42847;BME280;28495;49.916;14.536;2022-07-30T08:21:32;96758.81;;;18.69;66.41
42847;BME280;28495;49.916;14.536;2022-07-30T08:26:54;96757.69;;;18.78;66.49
42847;BME280;28495;49.916;14.536;2022-07-30T08:32:15;96767.88;;;18.81;66.55
42847;BME280;28495;49.916;14.536;2022-07-30T08:37:38;96770.84;;;18.71;66.33
42847;BME280;28495;49.916;14.536;2022-07-30T08:43:05;96763.25;;;18.62;66.45
42847;BME280;28495;49.916;14.536;2022-07-30T08:48:27;96767.53;;;18.63;66.54
42847;BME280;28495;49.916;14.536;2022-07-30T08:53:49;96768.97;;;18.65;66.55
42847;BME280;28495;49.916;14.536;2022-07-30T08:59:12;96761.72;;;18.74;66.95
42847;BME280;28495;49.916;14.536;2022-07-30T09:04:32;96771.63;;;18.94;66.99
42847;BME280;28495;49.916;14.536;2022-07-30T09:09:55;96769.03;;;19.00;67.02
42847;BME280;28495;49.916;14.536;2022-07-30T09:15:18;96764.19;;;19.04;66.67
42847;BME280;28495;49.916;14.536;2022-07-30T09:20:40;96767.06;;;19.09;66.86
42847;BME280;28495;49.916;14.536;2022-07-30T09:26:02;96766.50;;;18.92;66.68
42847;BME280;28495;49.916;14.536;2022-07-30T09:32:04;96763.06;;;18.92;66.77
42847;BME280;28495;49.916;14.536;2022-07-30T09:37:45;96772.44;;;18.94;67.20
42847;BME280;28495;49.916;14.536;2022-07-30T09:43:27;96753.56;;;18.97;66.91
42847;BME280;28495;49.916;14.536;2022-07-30T09:49:16;96757.78;;;19.20;67.42
42847;BME280;28495;49.916;14.536;2022-07-30T09:54:49;96761.53;;;19.39;67.27
42847;BME280;28495;49.916;14.536;2022-07-30T10:00:21;96766.88;;;19.53;67.07
42847;BME280;28495;49.916;14.536;2022-07-30T10:06:10;96764.00;;;19.54;66.96
42847;BME280;28495;49.916;14.536;2022-07-30T10:11:38;96766.69;;;19.61;67.36
42847;BME280;28495;49.916;14.536;2022-07-30T10:17:02;96771.31;;;19.52;67.21
42847;BME280;28495;49.916;14.536;2022-07-30T10:22:28;96768.47;;;19.47;67.15
42847;BME280;28495;49.916;14.536;2022-07-30T10:28:09;96763.16;;;19.40;66.66
42847;BME280;28495;49.916;14.536;2022-07-30T10:33:29;96766.84;;;19.46;67.00
42847;BME280;28495;49.916;14.536;2022-07-30T10:38:57;96759.94;;;19.52;66.95
42847;BME280;28495;49.916;14.536;2022-07-30T10:50:17;96756.59;;;19.78;67.24
42847;BME280;28495;49.916;14.536;2022-07-30T10:55:41;96755.56;;;19.79;66.90
42847;BME280;28495;49.916;14.536;2022-07-30T11:01:02;96754.31;;;19.68;66.77
42847;BME280;28495;49.916;14.536;2022-07-30T11:06:24;96767.16;;;19.71;66.71
42847;BME280;28495;49.916;14.536;2022-07-30T11:11:47;96768.38;;;19.75;66.74
42847;BME280;28495;49.916;14.536;2022-07-30T11:17:57;96763.56;;;19.92;66.63
42847;BME280;28495;49.916;14.536;2022-07-30T11:28:44;96772.06;;;19.81;66.23
42847;BME280;28495;49.916;14.536;2022-07-30T11:50:36;96768.91;;;20.06;66.40
42847;BME280;28495;49.916;14.536;2022-07-30T11:55:59;96765.88;;;20.16;65.99
42847;BME280;28495;49.916;14.536;2022-07-30T12:01:20;96764.00;;;20.16;65.83
42847;BME280;28495;49.916;14.536;2022-07-30T12:06:46;96766.28;;;20.26;65.98
42847;BME280;28495;49.916;14.536;2022-07-30T12:12:23;96762.63;;;20.34;65.85
42847;BME280;28495;49.916;14.536;2022-07-30T12:17:45;96766.50;;;20.51;65.96
42847;BME280;28495;49.916;14.536;2022-07-30T12:23:10;96766.91;;;20.62;65.37
42847;BME280;28495;49.916;14.536;2022-07-30T12:28:33;96760.56;;;20.69;65.06
42847;BME280;28495;49.916;14.536;2022-07-30T12:33:54;96753.84;;;21.00;65.58
42847;BME280;28495;49.916;14.536;2022-07-30T12:39:23;96747.91;;;21.12;64.55
42847;BME280;28495;49.916;14.536;2022-07-30T12:44:44;96748.53;;;21.00;64.69
42847;BME280;28495;49.916;14.536;2022-07-30T12:50:15;96764.88;;;20.77;63.94
42847;BME280;28495;49.916;14.536;2022-07-30T12:55:37;96769.94;;;20.52;64.28
42847;BME280;28495;49.916;14.536;2022-07-30T13:00:59;96774.84;;;20.28;64.20
42847;BME280;28495;49.916;14.536;2022-07-30T13:06:21;96784.59;;;20.21;64.91
42847;BME280;28495;49.916;14.536;2022-07-30T13:11:45;96780.94;;;20.29;65.30
42847;BME280;28495;49.916;14.536;2022-07-30T13:17:08;96783.59;;;20.42;65.43
42847;BME280;28495;49.916;14.536;2022-07-30T13:22:30;96782.78;;;20.48;65.40
42847;BME280;28495;49.916;14.536;2022-07-30T13:27:51;96784.03;;;20.59;65.01
42847;BME280;28495;49.916;14.536;2022-07-30T13:33:12;96779.34;;;20.61;64.60
42847;BME280;28495;49.916;14.536;2022-07-30T13:38:33;96780.97;;;20.69;65.06
42847;BME280;28495;49.916;14.536;2022-07-30T13:43:54;96772.81;;;20.84;64.99
42847;BME280;28495;49.916;14.536;2022-07-30T13:49:15;96776.50;;;20.83;64.47
42847;BME280;28495;49.916;14.536;2022-07-30T13:54:36;96779.53;;;20.73;64.03
42847;BME280;28495;49.916;14.536;2022-07-30T13:59:56;96786.06;;;20.64;63.96
42847;BME280;28495;49.916;14.536;2022-07-30T14:05:17;96777.50;;;20.62;64.01
42847;BME280;28495;49.916;14.536;2022-07-30T14:10:38;96779.53;;;20.66;64.03
42847;BME280;28495;49.916;14.536;2022-07-30T14:15:59;96777.91;;;20.72;64.30
42847;BME280;28495;49.916;14.536;2022-07-30T14:21:20;96779.53;;;20.66;63.77
42847;BME280;28495;49.916;14.536;2022-07-30T14:26:42;96784.03;;;20.59;63.41
42847;BME280;28495;49.916;14.536;2022-07-30T14:32:03;96790.75;;;20.55;63.60
42847;BME280;28495;49.916;14.536;2022-07-30T14:37:24;96786.06;;;20.50;63.70
42847;BME280;28495;49.916;14.536;2022-07-30T14:42:44;96788.09;;;20.55;63.42
42847;BME280;28495;49.916;14.536;2022-07-30T14:48:07;96794.41;;;20.47;63.07
42847;BME280;28495;49.916;14.536;2022-07-30T14:53:28;96791.75;;;20.40;62.88
42847;BME280;28495;49.916;14.536;2022-07-30T14:58:48;96791.53;;;20.29;62.88
42847;BME280;28495;49.916;14.536;2022-07-30T15:04:09;96795.00;;;20.22;63.11
42847;BME280;28495;49.916;14.536;2022-07-30T15:09:30;96801.09;;;20.16;63.21
42847;BME280;28495;49.916;14.536;2022-07-30T15:14:53;96791.50;;;20.15;63.49
42847;BME280;28495;49.916;14.536;2022-07-30T15:20:14;96798.25;;;20.18;63.03
42847;BME280;28495;49.916;14.536;2022-07-30T15:25:35;96802.53;;;20.19;63.05
42847;BME280;28495;49.916;14.536;2022-07-30T15:30:56;96808.38;;;20.07;62.82
42847;BME280;28495;49.916;14.536;2022-07-30T15:36:18;96802.88;;;19.95;62.70
42847;BME280;28495;49.916;14.536;2022-07-30T15:41:38;96820.50;;;19.82;62.67
42847;BME280;28495;49.916;14.536;2022-07-30T15:47:01;96824.13;;;19.74;63.00
42847;BME280;28495;49.916;14.536;2022-07-30T15:52:23;96823.16;;;19.82;63.17
42847;BME280;28495;49.916;14.536;2022-07-30T15:57:44;96829.69;;;19.86;63.11
42847;BME280;28495;49.916;14.536;2022-07-30T16:03:05;96828.66;;;19.80;63.07
42847;BME280;28495;49.916;14.536;2022-07-30T16:08:25;96839.44;;;19.85;63.01
42847;BME280;28495;49.916;14.536;2022-07-30T16:13:47;96831.88;;;19.75;62.72
42847;BME280;28495;49.916;14.536;2022-07-30T16:19:08;96834.44;;;19.62;63.03
42847;BME280;28495;49.916;14.536;2022-07-30T16:24:29;96844.22;;;19.61;63.11
42847;BME280;28495;49.916;14.536;2022-07-30T16:29:50;96849.91;;;19.58;62.99
42847;BME280;28495;49.916;14.536;2022-07-30T16:35:10;96850.25;;;19.48;63.12
42847;BME280;28495;49.916;14.536;2022-07-30T16:40:33;96846.19;;;19.46;63.28
42847;BME280;28495;49.916;14.536;2022-07-30T16:45:54;96866.44;;;19.32;62.88
42847;BME280;28495;49.916;14.536;2022-07-30T16:51:15;96856.59;;;19.19;62.66
42847;BME280;28495;49.916;14.536;2022-07-30T16:56:35;96868.75;;;19.13;62.77
42847;BME280;28495;49.916;14.536;2022-07-30T17:01:56;96877.69;;;19.12;62.65
42847;BME280;28495;49.916;14.536;2022-07-30T17:07:17;96887.00;;;19.08;63.00
42847;BME280;28495;49.916;14.536;2022-07-30T17:12:38;96894.06;;;19.01;63.00
42847;BME280;28495;49.916;14.536;2022-07-30T17:18:00;96896.81;;;18.93;63.19
42847;BME280;28495;49.916;14.536;2022-07-30T17:23:21;96900.66;;;18.90;63.29
42847;BME280;28495;49.916;14.536;2022-07-30T17:28:42;96917.63;;;18.96;63.33
42847;BME280;28495;49.916;14.536;2022-07-30T17:34:06;96921.59;;;18.92;62.96
42847;BME280;28495;49.916;14.536;2022-07-30T17:39:28;96933.09;;;18.62;63.16
42847;BME280;28495;49.916;14.536;2022-07-30T17:45:11;96925.16;;;18.62;63.94
42847;BME280;28495;49.916;14.536;2022-07-30T17:50:32;96930.72;;;18.67;63.97
42847;BME280;28495;49.916;14.536;2022-07-30T17:55:54;96936.13;;;18.59;63.87
42847;BME280;28495;49.916;14.536;2022-07-30T18:01:17;96937.38;;;18.63;64.30
42847;BME280;28495;49.916;14.536;2022-07-30T18:06:38;96936.94;;;18.59;64.57
42847;BME280;28495;49.916;14.536;2022-07-30T18:11:59;96947.56;;;18.66;64.63
42847;BME280;28495;49.916;14.536;2022-07-30T18:17:20;96945.50;;;18.62;64.62
42847;BME280;28495;49.916;14.536;2022-07-30T18:22:41;96943.94;;;18.67;64.71
42847;BME280;28495;49.916;14.536;2022-07-30T18:28:03;96953.50;;;18.68;64.91
42847;BME280;28495;49.916;14.536;2022-07-30T18:33:24;96956.34;;;18.52;64.62
42847;BME280;28495;49.916;14.536;2022-07-30T18:38:44;96962.47;;;18.52;65.09
42847;BME280;28495;49.916;14.536;2022-07-30T18:44:10;96965.00;;;18.61;65.16
42847;BME280;28495;49.916;14.536;2022-07-30T18:49:31;96964.66;;;18.49;64.98
42847;BME280;28495;49.916;14.536;2022-07-30T18:54:57;96959.84;;;18.52;65.05
42847;BME280;28495;49.916;14.536;2022-07-30T19:00:18;96974.84;;;18.52;65.02
42847;BME280;28495;49.916;14.536;2022-07-30T19:05:55;96975.84;;;18.51;65.20
42847;BME280;28495;49.916;14.536;2022-07-30T19:11:15;96975.03;;;18.50;64.98
42847;BME280;28495;49.916;14.536;2022-07-30T19:16:36;96977.13;;;18.55;64.88
42847;BME280;28495;49.916;14.536;2022-07-30T19:21:57;96978.84;;;18.63;65.02
42847;BME280;28495;49.916;14.536;2022-07-30T19:27:20;96982.91;;;18.65;64.79
42847;BME280;28495;49.916;14.536;2022-07-30T19:32:41;96990.13;;;18.56;64.65
42847;BME280;28495;49.916;14.536;2022-07-30T19:38:04;96984.41;;;18.53;64.45
42847;BME280;28495;49.916;14.536;2022-07-30T19:43:25;96984.81;;;18.35;64.64
42847;BME280;28495;49.916;14.536;2022-07-30T19:48:49;96989.91;;;18.36;64.63
42847;BME280;28495;49.916;14.536;2022-07-30T19:54:10;96997.44;;;18.39;64.73
42847;BME280;28495;49.916;14.536;2022-07-30T19:59:30;96988.59;;;18.47;64.53
42847;BME280;28495;49.916;14.536;2022-07-30T20:05:06;96984.78;;;18.50;64.24
42847;BME280;28495;49.916;14.536;2022-07-30T20:10:30;96985.63;;;18.35;64.24
42847;BME280;28495;49.916;14.536;2022-07-30T20:15:52;96989.16;;;18.27;64.25
42847;BME280;28495;49.916;14.536;2022-07-30T20:21:14;96986.09;;;18.24;63.94
42847;BME280;28495;49.916;14.536;2022-07-30T20:26:36;96983.53;;;18.16;63.81
42847;BME280;28495;49.916;14.536;2022-07-30T20:31:57;96984.84;;;18.05;63.63
42847;BME280;28495;49.916;14.536;2022-07-30T20:37:19;96976.91;;;18.05;63.92
42847;BME280;28495;49.916;14.536;2022-07-30T20:42:42;96981.19;;;18.06;63.64
42847;BME280;28495;49.916;14.536;2022-07-30T20:48:03;96977.44;;;18.00;63.48
42847;BME280;28495;49.916;14.536;2022-07-30T20:53:25;96988.06;;;17.92;63.58
42847;BME280;28495;49.916;14.536;2022-07-30T20:58:56;96996.78;;;17.92;63.56
42847;BME280;28495;49.916;14.536;2022-07-30T21:04:16;97006.72;;;17.90;63.53
42847;BME280;28495;49.916;14.536;2022-07-30T21:09:45;97005.25;;;17.88;63.57
42847;BME280;28495;49.916;14.536;2022-07-30T21:15:12;97019.44;;;17.87;63.50
42847;BME280;28495;49.916;14.536;2022-07-30T21:20:43;97011.38;;;17.88;63.46
42847;BME280;28495;49.916;14.536;2022-07-30T21:26:07;97024.47;;;17.81;63.28
42847;BME280;28495;49.916;14.536;2022-07-30T21:31:33;97026.34;;;17.73;63.31
42847;BME280;28495;49.916;14.536;2022-07-30T21:37:13;97024.88;;;17.70;63.35
42847;BME280;28495;49.916;14.536;2022-07-30T21:42:35;97033.16;;;17.67;63.57
42847;BME280;28495;49.916;14.536;2022-07-30T21:48:08;97034.50;;;17.63;63.57
42847;BME280;28495;49.916;14.536;2022-07-30T21:53:30;97028.59;;;17.61;63.56
42847;BME280;28495;49.916;14.536;2022-07-30T21:59:05;97029.22;;;17.63;63.61
42847;BME280;28495;49.916;14.536;2022-07-30T22:04:26;97036.16;;;17.64;63.84
42847;BME280;28495;49.916;14.536;2022-07-30T22:09:46;97029.88;;;17.65;63.88
42847;BME280;28495;49.916;14.536;2022-07-30T22:15:07;97023.25;;;17.69;63.68
42847;BME280;28495;49.916;14.536;2022-07-30T22:20:29;97028.03;;;17.65;63.75
42847;BME280;28495;49.916;14.536;2022-07-30T22:25:50;97027.59;;;17.62;63.64
42847;BME280;28495;49.916;14.536;2022-07-30T22:31:19;97023.66;;;17.58;63.50
42847;BME280;28495;49.916;14.536;2022-07-30T22:36:41;97024.94;;;17.47;63.72
42847;BME280;28495;49.916;14.536;2022-07-30T22:42:05;97021.38;;;17.55;63.83
42847;BME280;28495;49.916;14.536;2022-07-30T22:47:31;97028.03;;;17.50;63.74
42847;BME280;28495;49.916;14.536;2022-07-30T22:53:13;97028.28;;;17.56;63.89
42847;BME280;28495;49.916;14.536;2022-07-30T22:58:54;97025.19;;;17.52;63.83
42847;BME280;28495;49.916;14.536;2022-07-30T23:04:15;97027.38;;;17.48;63.81
42847;BME280;28495;49.916;14.536;2022-07-30T23:09:37;97024.22;;;17.53;63.95
42847;BME280;28495;49.916;14.536;2022-07-30T23:15:11;97022.75;;;17.50;63.86
42847;BME280;28495;49.916;14.536;2022-07-30T23:20:32;97019.19;;;17.43;63.67
42847;BME280;28495;49.916;14.536;2022-07-30T23:25:52;97012.91;;;17.44;63.94
42847;BME280;28495;49.916;14.536;2022-07-30T23:31:13;97015.91;;;17.41;63.80
42847;BME280;28495;49.916;14.536;2022-07-30T23:36:34;97012.25;;;17.42;63.68
42847;BME280;28495;49.916;14.536;2022-07-30T23:41:54;97017.06;;;17.39;63.55
42847;BME280;28495;49.916;14.536;2022-07-30T23:47:15;97017.19;;;17.45;63.89
42847;BME280;28495;49.916;14.536;2022-07-30T23:52:35;97017.44;;;17.35;63.54
42847;BME280;28495;49.916;14.536;2022-07-30T23:57:56;97018.66;;;17.25;63.60
